createdAt,value
2023-04-01T00:00:49.494Z,24.61
2023-04-01T00:01:49.503Z,24.58
2023-04-01T00:02:49.599Z,24.58
2023-04-01T00:03:49.648Z,24.61
2023-04-01T00:04:49.594Z,24.60
2023-04-01T00:05:49.628Z,24.60
2023-04-01T00:06:49.653Z,24.61
2023-04-01T00:07:49.680Z,24.60
2023-04-01T00:08:49.708Z,24.58
2023-04-01T00:09:49.719Z,24.58
2023-04-01T00:10:49.733Z,24.60
2023-04-01T00:11:49.748Z,24.57
2023-04-01T00:12:49.791Z,24.60
2023-04-01T00:13:49.793Z,24.58
2023-04-01T00:14:49.794Z,24.60
2023-04-01T00:15:49.848Z,24.58
2023-04-01T00:16:49.913Z,24.60
2023-04-01T00:17:49.890Z,24.57
2023-04-01T00:18:49.866Z,24.57
2023-04-01T00:19:49.887Z,24.60
2023-04-01T00:20:49.897Z,24.60
2023-04-01T00:21:49.912Z,24.57
2023-04-01T00:22:49.925Z,24.58
2023-04-01T00:23:49.949Z,24.57
2023-04-01T00:24:49.947Z,24.55
2023-04-01T00:25:49.968Z,24.57
2023-04-01T00:26:49.980Z,24.55
2023-04-01T00:27:49.991Z,24.58
2023-04-01T00:28:50.036Z,24.54
2023-04-01T00:29:50.020Z,24.55
2023-04-01T00:30:50.036Z,24.55
2023-04-01T00:31:50.182Z,24.57
2023-04-01T00:32:50.116Z,24.54
2023-04-01T00:33:50.090Z,24.55
2023-04-01T00:34:50.109Z,24.57
2023-04-01T00:35:50.173Z,24.55
2023-04-01T00:36:50.139Z,24.55
2023-04-01T00:37:50.157Z,24.55
2023-04-01T00:38:50.172Z,24.55
2023-04-01T00:39:50.192Z,24.54
2023-04-01T00:40:50.206Z,24.57
2023-04-01T00:41:50.234Z,24.58
2023-04-01T00:42:50.233Z,24.55
2023-04-01T00:43:50.277Z,24.57
2023-04-01T00:44:50.360Z,24.55
2023-04-01T00:45:50.380Z,24.54
2023-04-01T00:46:50.460Z,24.54
2023-04-01T00:47:50.566Z,24.55
2023-04-01T00:48:50.524Z,24.54
2023-04-01T00:49:50.567Z,24.54
2023-04-01T00:50:50.610Z,24.54
2023-04-01T00:51:50.656Z,24.57
2023-04-01T00:52:50.711Z,24.54
2023-04-01T00:53:50.767Z,24.55
2023-04-01T00:54:50.796Z,24.58
2023-04-01T00:55:50.840Z,24.54
2023-04-01T00:56:50.907Z,24.53
2023-04-01T00:57:50.930Z,24.55
2023-04-01T00:58:50.980Z,24.57
2023-04-01T00:59:51.050Z,24.57
2023-04-01T01:00:51.131Z,24.57
2023-04-01T01:01:51.174Z,24.55
2023-04-01T01:02:51.205Z,24.54
2023-04-01T01:03:51.203Z,24.55
2023-04-01T01:04:51.243Z,24.54
2023-04-01T01:05:51.473Z,24.55
2023-04-01T01:06:51.334Z,24.54
2023-04-01T01:07:51.379Z,24.55
2023-04-01T01:08:51.421Z,24.53
2023-04-01T01:09:51.470Z,24.53
2023-04-01T01:10:51.535Z,24.55
2023-04-01T01:11:51.580Z,24.55
2023-04-01T01:12:51.613Z,24.54
2023-04-01T01:13:51.658Z,24.54
2023-04-01T01:14:51.707Z,24.53
2023-04-01T01:15:51.756Z,24.53
2023-04-01T01:16:51.878Z,24.55
2023-04-01T01:17:51.864Z,24.53
2023-04-01T01:18:51.914Z,24.51
2023-04-01T01:19:51.951Z,24.54
2023-04-01T01:20:52.002Z,24.51
2023-04-01T01:21:52.046Z,24.54
2023-04-01T01:22:52.107Z,24.51
2023-04-01T01:23:52.151Z,24.51
2023-04-01T01:24:52.218Z,24.51
2023-04-01T01:25:52.251Z,24.53
2023-04-01T01:26:52.318Z,24.51
2023-04-01T01:27:52.361Z,24.53
2023-04-01T01:28:52.407Z,24.53
2023-04-01T01:29:52.459Z,24.50
2023-04-01T01:30:52.513Z,24.53
2023-04-01T01:31:52.557Z,24.51
2023-04-01T01:32:52.705Z,24.54
2023-04-01T01:33:52.656Z,24.54
2023-04-01T01:34:52.713Z,24.53
2023-04-01T01:35:52.809Z,24.53
2023-04-01T01:36:52.816Z,24.53
2023-04-01T01:37:52.876Z,24.50
2023-04-01T01:38:52.925Z,24.54
2023-04-01T01:39:52.979Z,24.53
2023-04-01T01:40:53.029Z,24.51
2023-04-01T01:41:53.048Z,24.51
2023-04-01T01:42:53.059Z,24.53
2023-04-01T01:43:53.079Z,24.53
2023-04-01T01:44:53.096Z,24.51
2023-04-01T01:45:53.133Z,24.53
2023-04-01T01:46:53.125Z,24.51
2023-04-01T01:47:53.181Z,24.51
2023-04-01T01:48:53.210Z,24.51
2023-04-01T01:49:53.224Z,24.51
2023-04-01T01:50:53.281Z,24.51
2023-04-01T01:51:53.326Z,24.53
2023-04-01T01:52:53.379Z,24.51
2023-04-01T01:53:53.427Z,24.53
2023-04-01T01:54:53.484Z,24.53
2023-04-01T01:55:53.536Z,24.51
2023-04-01T01:56:53.623Z,24.53
2023-04-01T01:57:53.683Z,24.50
2023-04-01T01:58:53.700Z,24.53
2023-04-01T01:59:53.768Z,24.50
2023-04-01T02:00:53.813Z,24.54
2023-04-01T02:01:53.896Z,24.50
2023-04-01T02:02:53.985Z,24.51
2023-04-01T02:03:53.967Z,24.48
2023-04-01T02:04:54.194Z,24.50
2023-04-01T02:05:54.081Z,24.50
2023-04-01T02:06:54.127Z,24.48
2023-04-01T02:07:54.171Z,24.51
2023-04-01T02:08:54.227Z,24.50
2023-04-01T02:09:54.280Z,24.50
2023-04-01T02:10:54.332Z,24.50
2023-04-01T02:11:54.388Z,24.50
2023-04-01T02:12:54.444Z,24.53
2023-04-01T02:13:54.491Z,24.53
2023-04-01T02:14:54.544Z,24.51
2023-04-01T02:15:54.619Z,24.53
2023-04-01T02:16:54.653Z,24.53
2023-04-01T02:17:54.710Z,24.51
2023-04-01T02:18:54.747Z,24.50
2023-04-01T02:19:54.789Z,24.50
2023-04-01T02:20:54.877Z,24.50
2023-04-01T02:21:54.887Z,24.51
2023-04-01T02:22:54.938Z,24.51
2023-04-01T02:23:55.024Z,24.51
2023-04-01T02:24:55.039Z,24.51
2023-04-01T02:25:55.100Z,24.51
2023-04-01T02:26:55.142Z,24.50
2023-04-01T02:27:55.198Z,24.50
2023-04-01T02:28:55.248Z,24.51
2023-04-01T02:29:55.296Z,24.50
2023-04-01T02:30:55.348Z,24.51
2023-04-01T02:31:55.507Z,24.53
2023-04-01T02:32:55.515Z,24.51
2023-04-01T02:33:55.494Z,24.51
2023-04-01T02:34:55.548Z,24.50
2023-04-01T02:35:55.610Z,24.53
2023-04-01T02:36:55.681Z,24.51
2023-04-01T02:37:55.709Z,24.47
2023-04-01T02:38:55.746Z,24.51
2023-04-01T02:39:55.798Z,24.53
2023-04-01T02:40:55.845Z,24.51
2023-04-01T02:41:55.894Z,24.51
2023-04-01T02:42:55.949Z,24.51
2023-04-01T02:43:56.014Z,24.54
2023-04-01T02:44:56.058Z,24.51
2023-04-01T02:45:56.108Z,24.50
2023-04-01T02:46:56.219Z,24.50
2023-04-01T02:47:56.287Z,24.51
2023-04-01T02:48:56.271Z,24.53
2023-04-01T02:49:56.320Z,24.53
2023-04-01T02:50:56.371Z,24.53
2023-04-01T02:51:56.429Z,24.51
2023-04-01T02:52:56.508Z,24.55
2023-04-01T02:53:56.529Z,24.51
2023-04-01T02:54:56.583Z,24.53
2023-04-01T02:55:56.634Z,24.51
2023-04-01T02:56:56.735Z,24.55
2023-04-01T02:57:56.743Z,24.55
2023-04-01T02:58:56.781Z,24.54
2023-04-01T02:59:56.827Z,24.57
2023-04-01T03:00:56.921Z,24.54
2023-04-01T03:01:56.961Z,24.55
2023-04-01T03:02:57.343Z,24.53
2023-04-01T03:03:57.047Z,24.55
2023-04-01T03:04:57.100Z,24.54
2023-04-01T03:05:57.154Z,24.54
2023-04-01T03:06:57.206Z,24.55
2023-04-01T03:07:57.265Z,24.57
2023-04-01T03:08:57.323Z,24.54
2023-04-01T03:09:57.355Z,24.54
2023-04-01T03:10:59.516Z,24.55
2023-04-01T03:11:57.389Z,24.55
2023-04-01T03:12:57.380Z,24.55
2023-04-01T03:13:57.368Z,24.55
2023-04-01T03:14:57.357Z,24.54
2023-04-01T03:15:57.348Z,24.55
2023-04-01T03:16:57.408Z,24.54
2023-04-01T03:17:57.378Z,24.51
2023-04-01T03:18:57.305Z,24.55
2023-04-01T03:19:57.294Z,24.51
2023-04-01T03:20:57.285Z,24.51
2023-04-01T03:21:57.276Z,24.55
2023-04-01T03:22:57.258Z,24.54
2023-04-01T03:23:57.254Z,24.53
2023-04-01T03:24:57.259Z,24.54
2023-04-01T03:25:57.226Z,24.54
2023-04-01T03:26:57.207Z,24.53
2023-04-01T03:27:57.188Z,24.57
2023-04-01T03:28:57.173Z,24.55
2023-04-01T03:29:57.163Z,24.55
2023-04-01T03:30:57.165Z,24.54
2023-04-01T03:31:57.119Z,24.55
2023-04-01T03:32:57.196Z,24.54
2023-04-01T03:33:57.087Z,24.58
2023-04-01T03:34:57.076Z,24.57
2023-04-01T03:35:57.087Z,24.57
2023-04-01T03:36:57.043Z,24.57
2023-04-01T03:37:57.042Z,24.57
2023-04-01T03:38:57.008Z,24.58
2023-04-01T03:39:56.998Z,24.58
2023-04-01T03:40:57.059Z,24.58
2023-04-01T03:41:57.082Z,24.58
2023-04-01T03:42:57.248Z,24.58
2023-04-01T03:43:57.179Z,24.58
2023-04-01T03:44:57.232Z,24.58
2023-04-01T03:45:57.335Z,24.58
2023-04-01T03:46:57.336Z,24.61
2023-04-01T03:47:57.441Z,24.60
2023-04-01T03:48:57.416Z,24.61
2023-04-01T03:49:57.465Z,24.60
2023-04-01T03:50:57.515Z,24.61
2023-04-01T03:51:57.575Z,24.60
2023-04-01T03:52:57.623Z,24.61
2023-04-01T03:53:57.658Z,24.61
2023-04-01T03:54:57.704Z,24.61
2023-04-01T03:55:57.742Z,24.62
2023-04-01T03:56:57.848Z,24.61
2023-04-01T03:57:57.824Z,24.61
2023-04-01T03:58:57.870Z,24.62
2023-04-01T03:59:57.945Z,24.60
2023-04-01T04:00:57.980Z,24.61
2023-04-01T04:01:58.016Z,24.61
2023-04-01T04:02:58.167Z,24.60
2023-04-01T04:03:58.136Z,24.62
2023-04-01T04:04:58.179Z,24.64
2023-04-01T04:05:58.215Z,24.64
2023-04-01T04:06:58.262Z,24.62
2023-04-01T04:07:58.316Z,24.61
2023-04-01T04:08:58.357Z,24.62
2023-04-01T04:09:58.403Z,24.62
2023-04-01T04:10:58.466Z,24.62
2023-04-01T04:11:58.494Z,24.62
2023-04-01T04:12:58.577Z,24.62
2023-04-01T04:13:58.600Z,24.64
2023-04-01T04:14:58.639Z,24.61
2023-04-01T04:15:58.721Z,24.62
2023-04-01T04:16:58.718Z,24.61
2023-04-01T04:17:58.773Z,24.61
2023-04-01T04:18:59.754Z,24.60
2023-04-01T04:19:58.843Z,24.61
2023-04-01T04:20:58.896Z,24.61
2023-04-01T04:21:58.936Z,24.64
2023-04-01T04:22:58.998Z,24.61
2023-04-01T04:23:59.031Z,24.61
2023-04-01T04:24:59.079Z,24.64
2023-04-01T04:25:59.141Z,24.64
2023-04-01T04:26:59.166Z,24.65
2023-04-01T04:27:59.210Z,24.62
2023-04-01T04:28:59.277Z,24.61
2023-04-01T04:29:59.297Z,24.62
2023-04-01T04:30:59.353Z,24.61
2023-04-01T04:31:59.548Z,24.64
2023-04-01T04:32:59.446Z,24.64
2023-04-01T04:33:59.477Z,24.62
2023-04-01T04:34:59.521Z,24.64
2023-04-01T04:35:59.609Z,24.62
2023-04-01T04:36:59.606Z,24.62
2023-04-01T04:37:59.652Z,24.64
2023-04-01T04:38:59.696Z,24.61
2023-04-01T04:39:59.740Z,24.64
2023-04-01T04:40:59.786Z,24.61
2023-04-01T04:41:59.827Z,24.62
2023-04-01T04:42:59.869Z,24.62
2023-04-01T04:43:59.916Z,24.62
2023-04-01T04:44:59.982Z,24.61
2023-04-01T04:45:59.989Z,24.64
2023-04-01T04:47:00.115Z,24.62
2023-04-01T04:48:00.157Z,24.61
2023-04-01T04:49:00.149Z,24.62
2023-04-01T04:50:00.205Z,24.62
2023-04-01T04:51:00.221Z,24.62
2023-04-01T04:52:00.264Z,24.62
2023-04-01T04:53:00.310Z,24.62
2023-04-01T04:54:00.359Z,24.61
2023-04-01T04:55:00.412Z,24.64
2023-04-01T04:56:00.457Z,24.61
2023-04-01T04:57:00.496Z,24.65
2023-04-01T04:58:00.533Z,24.62
2023-04-01T04:59:00.604Z,24.62
2023-04-01T05:00:00.622Z,24.61
2023-04-01T05:01:00.670Z,24.62
2023-04-01T05:02:01.293Z,24.62
2023-04-01T05:03:00.778Z,24.60
2023-04-01T05:04:00.667Z,24.61
2023-04-01T05:05:00.683Z,24.62
2023-04-01T05:06:00.735Z,24.62
2023-04-01T05:07:00.705Z,24.62
2023-04-01T05:08:00.775Z,24.61
2023-04-01T05:09:00.756Z,24.62
2023-04-01T05:10:00.740Z,24.58
2023-04-01T05:11:00.769Z,24.55
2023-04-01T05:12:00.787Z,24.58
2023-04-01T05:13:00.789Z,24.57
2023-04-01T05:14:00.814Z,24.55
2023-04-01T05:15:00.864Z,24.55
2023-04-01T05:16:00.860Z,24.57
2023-04-01T05:17:00.946Z,24.55
2023-04-01T05:18:00.965Z,24.55
2023-04-01T05:19:00.927Z,24.57
2023-04-01T05:20:00.961Z,24.53
2023-04-01T05:21:01.019Z,24.53
2023-04-01T05:22:01.074Z,24.51
2023-04-01T05:23:01.149Z,24.50
2023-04-01T05:24:01.188Z,24.53
2023-04-01T05:25:01.235Z,24.51
2023-04-01T05:26:01.280Z,24.50
2023-04-01T05:27:01.323Z,24.51
2023-04-01T05:28:01.356Z,24.51
2023-04-01T05:29:01.409Z,24.51
2023-04-01T05:30:01.486Z,24.51
2023-04-01T05:31:01.573Z,24.50
2023-04-01T05:32:01.560Z,24.50
2023-04-01T05:33:01.666Z,24.51
2023-04-01T05:34:01.644Z,24.50
2023-04-01T05:35:01.690Z,24.51
2023-04-01T05:36:01.791Z,24.50
2023-04-01T05:37:01.768Z,24.48
2023-04-01T05:38:01.828Z,24.50
2023-04-01T05:39:01.854Z,24.50
2023-04-01T05:40:01.929Z,24.48
2023-04-01T05:41:01.982Z,24.48
2023-04-01T05:42:02.020Z,24.51
2023-04-01T05:43:02.070Z,24.48
2023-04-01T05:44:02.096Z,24.50
2023-04-01T05:45:02.130Z,24.47
2023-04-01T05:46:02.232Z,24.48
2023-04-01T05:47:02.220Z,24.47
2023-04-01T05:48:02.306Z,24.48
2023-04-01T05:49:02.339Z,24.47
2023-04-01T05:50:03.287Z,24.47
2023-04-01T05:51:02.423Z,24.47
2023-04-01T05:52:02.499Z,24.48
2023-04-01T05:53:02.538Z,24.47
2023-04-01T05:54:02.550Z,24.48
2023-04-01T05:55:02.577Z,24.47
2023-04-01T05:56:02.622Z,24.47
2023-04-01T05:57:02.811Z,24.46
2023-04-01T05:58:02.725Z,24.48
2023-04-01T05:59:02.728Z,24.46
2023-04-01T06:00:02.782Z,24.47
2023-04-01T06:01:10.461Z,24.46
2023-04-01T06:02:02.777Z,24.47
2023-04-01T06:03:02.875Z,24.46
2023-04-01T06:04:02.971Z,24.46
2023-04-01T06:05:02.807Z,24.47
2023-04-01T06:06:02.740Z,24.44
2023-04-01T06:07:02.717Z,24.47
2023-04-01T06:08:02.721Z,24.47
2023-04-01T06:09:02.688Z,24.46
2023-04-01T06:10:02.720Z,24.46
2023-04-01T06:11:02.636Z,24.47
2023-04-01T06:12:02.620Z,24.46
2023-04-01T06:13:02.617Z,24.47
2023-04-01T06:14:02.596Z,24.47
2023-04-01T06:15:02.609Z,24.46
2023-04-01T06:16:02.589Z,24.47
2023-04-01T06:17:02.550Z,24.48
2023-04-01T06:18:02.592Z,24.48
2023-04-01T06:19:02.498Z,24.47
2023-04-01T06:20:02.534Z,24.50
2023-04-01T06:21:02.504Z,24.48
2023-04-01T06:22:02.457Z,24.46
2023-04-01T06:23:02.427Z,24.46
2023-04-01T06:24:02.415Z,24.47
2023-04-01T06:25:02.402Z,24.46
2023-04-01T06:26:02.425Z,24.48
2023-04-01T06:27:02.362Z,24.47
2023-04-01T06:28:02.352Z,24.46
2023-04-01T06:29:02.332Z,24.48
2023-04-01T06:30:02.356Z,24.46
2023-04-01T06:31:02.371Z,24.47
2023-04-01T06:32:02.481Z,24.50
2023-04-01T06:33:02.460Z,24.47
2023-04-01T06:34:02.539Z,24.48
2023-04-01T06:35:02.475Z,24.47
2023-04-01T06:36:02.609Z,24.47
2023-04-01T06:37:02.574Z,24.48
2023-04-01T06:38:02.550Z,24.47
2023-04-01T06:39:02.596Z,24.47
2023-04-01T06:40:02.659Z,24.48
2023-04-01T06:41:02.666Z,24.48
2023-04-01T06:42:02.704Z,24.48
2023-04-01T06:43:02.753Z,24.51
2023-04-01T06:44:03.317Z,24.47
2023-04-01T06:45:02.790Z,24.48
2023-04-01T06:46:02.854Z,24.47
2023-04-01T06:47:02.834Z,24.47
2023-04-01T06:48:02.887Z,24.48
2023-04-01T06:49:02.859Z,24.47
2023-04-01T06:50:02.872Z,24.48
2023-04-01T06:51:02.911Z,24.48
2023-04-01T06:52:02.932Z,24.48
2023-04-01T06:53:03.012Z,24.50
2023-04-01T06:54:02.997Z,24.47
2023-04-01T06:55:03.077Z,24.50
2023-04-01T06:56:03.063Z,24.51
2023-04-01T06:57:03.114Z,24.51
2023-04-01T06:58:03.115Z,24.50
2023-04-01T06:59:03.111Z,24.48
2023-04-01T07:00:03.144Z,24.47
2023-04-01T07:01:03.270Z,24.50
2023-04-01T07:02:03.192Z,24.50
2023-04-01T07:03:04.868Z,24.50
2023-04-01T07:04:03.240Z,24.53
2023-04-01T07:05:03.174Z,24.48
2023-04-01T07:06:03.163Z,24.50
2023-04-01T07:07:03.124Z,24.51
2023-04-01T07:08:03.107Z,24.50
2023-04-01T07:09:05.491Z,24.50
2023-04-01T07:10:03.056Z,24.51
2023-04-01T07:11:03.033Z,24.50
2023-04-01T07:12:03.035Z,24.53
2023-04-01T07:13:03.003Z,24.54
2023-04-01T07:14:02.978Z,24.55
2023-04-01T07:15:02.977Z,24.57
2023-04-01T07:16:02.929Z,24.60
2023-04-01T07:17:03.009Z,24.58
2023-04-01T07:18:02.974Z,24.61
2023-04-01T07:19:02.857Z,24.61
2023-04-01T07:20:02.853Z,24.62
2023-04-01T07:21:02.830Z,24.61
2023-04-01T07:22:03.046Z,24.62
2023-04-01T07:23:02.766Z,24.65
2023-04-01T07:24:02.733Z,24.64
2023-04-01T07:25:02.738Z,24.67
2023-04-01T07:26:02.696Z,24.67
2023-04-01T07:27:02.659Z,24.68
2023-04-01T07:28:02.637Z,24.67
2023-04-01T07:29:02.623Z,24.67
2023-04-01T07:30:02.599Z,24.70
2023-04-01T07:31:02.634Z,24.70
2023-04-01T07:32:02.539Z,24.70
2023-04-01T07:33:02.629Z,24.71
2023-04-01T07:34:02.513Z,24.72
2023-04-01T07:35:02.478Z,24.74
2023-04-01T07:36:02.500Z,24.74
2023-04-01T07:37:02.476Z,24.71
2023-04-01T07:38:02.405Z,24.74
2023-04-01T07:39:02.443Z,24.74
2023-04-01T07:40:02.360Z,24.72
2023-04-01T07:41:02.362Z,24.74
2023-04-01T07:42:02.317Z,24.75
2023-04-01T07:43:02.324Z,24.77
2023-04-01T07:44:02.319Z,24.78
2023-04-01T07:45:02.326Z,24.77
2023-04-01T07:46:02.405Z,24.77
2023-04-01T07:47:02.332Z,24.77
2023-04-01T07:48:02.418Z,24.75
2023-04-01T07:49:02.331Z,24.77
2023-04-01T07:50:02.330Z,24.75
2023-04-01T07:51:02.332Z,24.77
2023-04-01T07:52:02.330Z,24.78
2023-04-01T07:53:02.336Z,24.77
2023-04-01T07:54:02.321Z,24.78
2023-04-01T07:55:02.318Z,24.78
2023-04-01T07:56:02.330Z,24.77
2023-04-01T07:57:02.383Z,24.78
2023-04-01T07:58:02.306Z,24.79
2023-04-01T07:59:02.335Z,24.78
2023-04-01T08:00:02.337Z,24.77
2023-04-01T08:01:02.297Z,24.81
2023-04-01T08:02:02.291Z,24.77
2023-04-01T08:03:02.382Z,24.77
2023-04-01T08:04:02.439Z,24.78
2023-04-01T08:05:02.377Z,24.79
2023-04-01T08:06:02.282Z,24.82
2023-04-01T08:07:02.268Z,24.78
2023-04-01T08:08:02.290Z,24.81
2023-04-01T08:09:02.311Z,24.82
2023-04-01T08:10:02.350Z,24.79
2023-04-01T08:11:02.376Z,24.82
2023-04-01T08:12:02.409Z,24.81
2023-04-01T08:13:02.467Z,24.79
2023-04-01T08:14:02.464Z,24.85
2023-04-01T08:15:03.369Z,24.83
2023-04-01T08:16:02.530Z,24.82
2023-04-01T08:17:02.527Z,24.85
2023-04-01T08:18:02.632Z,24.83
2023-04-01T08:19:02.585Z,24.81
2023-04-01T08:20:02.625Z,24.83
2023-04-01T08:21:02.618Z,24.85
2023-04-01T08:22:02.630Z,24.82
2023-04-01T08:23:02.680Z,24.86
2023-04-01T08:24:02.693Z,24.86
2023-04-01T08:25:02.715Z,24.86
2023-04-01T08:26:02.725Z,24.88
2023-04-01T08:27:02.748Z,24.88
2023-04-01T08:28:02.783Z,24.89
2023-04-01T08:29:02.833Z,24.88
2023-04-01T08:30:02.833Z,24.89
2023-04-01T08:31:02.832Z,24.89
2023-04-01T08:32:02.954Z,24.89
2023-04-01T08:33:02.924Z,24.89
2023-04-01T08:34:02.903Z,24.93
2023-04-01T08:35:02.941Z,24.92
2023-04-01T08:36:02.972Z,24.92
2023-04-01T08:37:02.979Z,24.96
2023-04-01T08:38:02.987Z,24.95
2023-04-01T08:39:03.011Z,25.00
2023-04-01T08:40:03.021Z,24.99
2023-04-01T08:41:03.022Z,25.00
2023-04-01T08:42:03.040Z,24.99
2023-04-01T08:43:03.085Z,24.99
2023-04-01T08:44:03.093Z,25.03
2023-04-01T08:45:03.099Z,25.03
2023-04-01T08:46:03.139Z,25.05
2023-04-01T08:47:03.092Z,25.06
2023-04-01T08:48:03.150Z,25.10
2023-04-01T08:49:03.141Z,25.12
2023-04-01T08:50:03.124Z,25.13
2023-04-01T08:51:05.171Z,25.12
2023-04-01T08:52:03.098Z,25.12
2023-04-01T08:53:03.067Z,25.16
2023-04-01T08:54:03.047Z,25.16
2023-04-01T08:55:03.018Z,25.17
2023-04-01T08:56:02.983Z,25.20
2023-04-01T08:57:02.992Z,25.20
2023-04-01T08:58:02.924Z,25.23
2023-04-01T08:59:02.905Z,25.22
2023-04-01T09:00:02.878Z,25.26
2023-04-01T09:01:02.871Z,25.23
2023-04-01T09:02:02.842Z,25.24
2023-04-01T09:03:02.941Z,25.27
2023-04-01T09:04:02.866Z,25.29
2023-04-01T09:05:02.736Z,25.29
2023-04-01T09:06:02.708Z,25.32
2023-04-01T09:07:02.675Z,25.34
2023-04-01T09:08:02.657Z,25.34
2023-04-01T09:09:02.627Z,25.33
2023-04-01T09:10:02.603Z,25.37
2023-04-01T09:11:02.558Z,25.36
2023-04-01T09:12:02.550Z,25.38
2023-04-01T09:13:02.514Z,25.38
2023-04-01T09:14:02.489Z,25.41
2023-04-01T09:15:02.458Z,25.41
2023-04-01T09:16:02.461Z,25.45
2023-04-01T09:17:02.413Z,25.44
2023-04-01T09:18:02.377Z,25.45
2023-04-01T09:19:02.337Z,25.48
2023-04-01T09:20:02.311Z,25.47
2023-04-01T09:21:02.288Z,25.53
2023-04-01T09:22:02.258Z,25.53
2023-04-01T09:23:02.291Z,25.54
2023-04-01T09:24:02.317Z,25.55
2023-04-01T09:25:02.352Z,25.55
2023-04-01T09:26:02.381Z,25.55
2023-04-01T09:27:02.427Z,25.58
2023-04-01T09:28:02.442Z,25.55
2023-04-01T09:29:02.463Z,25.57
2023-04-01T09:30:02.524Z,25.58
2023-04-01T09:31:02.560Z,25.60
2023-04-01T09:32:02.550Z,25.61
2023-04-01T09:33:02.670Z,25.64
2023-04-01T09:34:02.610Z,25.62
2023-04-01T09:35:02.631Z,25.65
2023-04-01T09:36:02.673Z,25.64
2023-04-01T09:37:02.679Z,25.64
2023-04-01T09:38:02.718Z,25.65
2023-04-01T09:39:02.732Z,25.67
2023-04-01T09:40:02.754Z,25.68
2023-04-01T09:41:02.777Z,25.71
2023-04-01T09:42:02.805Z,25.70
2023-04-01T09:43:02.827Z,25.71
2023-04-01T09:44:02.859Z,25.71
2023-04-01T09:45:02.865Z,25.71
2023-04-01T09:46:02.941Z,25.72
2023-04-01T09:47:02.896Z,25.75
2023-04-01T09:48:02.954Z,25.72
2023-04-01T09:49:02.949Z,25.74
2023-04-01T09:50:02.939Z,25.75
2023-04-01T09:51:02.964Z,25.75
2023-04-01T09:52:02.956Z,25.75
2023-04-01T09:53:02.955Z,25.77
2023-04-01T09:54:02.991Z,25.78
2023-04-01T09:55:02.986Z,25.75
2023-04-01T09:56:02.987Z,25.79
2023-04-01T09:57:03.025Z,25.78
2023-04-01T09:58:03.013Z,25.79
2023-04-01T09:59:03.038Z,25.82
2023-04-01T10:00:03.023Z,25.82
2023-04-01T10:01:03.032Z,25.79
2023-04-01T10:02:03.075Z,25.79
2023-04-01T10:03:03.093Z,25.79
2023-04-01T10:04:03.038Z,25.78
2023-04-01T10:05:03.072Z,25.78
2023-04-01T10:06:03.114Z,25.78
2023-04-01T10:07:03.059Z,25.78
2023-04-01T10:08:03.062Z,25.79
2023-04-01T10:09:03.061Z,25.79
2023-04-01T10:10:03.081Z,25.75
2023-04-01T10:11:03.081Z,25.75
2023-04-01T10:12:03.106Z,25.78
2023-04-01T10:13:03.096Z,25.75
2023-04-01T10:14:03.104Z,25.75
2023-04-01T10:15:03.110Z,25.74
2023-04-01T10:16:03.188Z,25.72
2023-04-01T10:17:03.126Z,25.71
2023-04-01T10:18:03.298Z,25.75
2023-04-01T10:19:03.151Z,25.74
2023-04-01T10:20:03.166Z,25.77
2023-04-01T10:21:03.208Z,25.77
2023-04-01T10:22:03.160Z,25.74
2023-04-01T10:23:03.177Z,25.74
2023-04-01T10:24:03.216Z,25.72
2023-04-01T10:25:06.051Z,25.74
2023-04-01T10:26:03.243Z,25.71
2023-04-01T10:27:03.226Z,25.74
2023-04-01T10:28:03.181Z,25.71
2023-04-01T10:29:03.162Z,25.70
2023-04-01T10:30:03.203Z,25.70
2023-04-01T10:31:03.115Z,25.68
2023-04-01T10:32:03.193Z,25.70
2023-04-01T10:33:03.091Z,25.68
2023-04-01T10:34:03.070Z,25.70
2023-04-01T10:35:02.995Z,25.68
2023-04-01T10:36:03.089Z,25.68
2023-04-01T10:37:02.974Z,25.68
2023-04-01T10:38:02.922Z,25.68
2023-04-01T10:39:02.910Z,25.68
2023-04-01T10:40:02.888Z,25.65
2023-04-01T10:41:02.878Z,25.67
2023-04-01T10:42:02.824Z,25.65
2023-04-01T10:43:02.801Z,25.64
2023-04-01T10:44:02.783Z,25.65
2023-04-01T10:45:02.765Z,25.64
2023-04-01T10:46:02.755Z,25.61
2023-04-01T10:47:02.743Z,25.62
2023-04-01T10:48:02.845Z,25.62
2023-04-01T10:49:02.782Z,25.61
2023-04-01T10:50:02.803Z,25.60
2023-04-01T10:51:02.824Z,25.58
2023-04-01T10:52:02.823Z,25.58
2023-04-01T10:53:03.611Z,25.57
2023-04-01T10:54:02.824Z,25.57
2023-04-01T10:55:02.807Z,25.57
2023-04-01T10:56:02.785Z,25.55
2023-04-01T10:57:02.801Z,25.54
2023-04-01T10:58:02.765Z,25.53
2023-04-01T10:59:02.707Z,25.55
2023-04-01T11:00:02.694Z,25.50
2023-04-01T11:01:02.710Z,25.51
2023-04-01T11:02:11.578Z,25.53
2023-04-01T11:03:02.916Z,25.51
2023-04-01T11:04:02.586Z,25.48
2023-04-01T11:05:02.565Z,25.48
2023-04-01T11:06:02.537Z,25.50
2023-04-01T11:07:02.506Z,25.47
2023-04-01T11:08:06.749Z,25.50
2023-04-01T11:09:02.487Z,25.47
2023-04-01T11:10:02.450Z,25.47
2023-04-01T11:11:02.402Z,25.47
2023-04-01T11:12:02.381Z,25.44
2023-04-01T11:13:02.354Z,25.43
2023-04-01T11:14:02.323Z,25.44
2023-04-01T11:15:02.312Z,25.44
2023-04-01T11:16:02.343Z,25.43
2023-04-01T11:17:02.263Z,25.43
2023-04-01T11:18:02.254Z,25.38
2023-04-01T11:19:02.215Z,25.38
2023-04-01T11:20:02.206Z,25.37
2023-04-01T11:21:02.189Z,25.38
2023-04-01T11:22:02.176Z,25.38
2023-04-01T11:23:02.171Z,25.36
2023-04-01T11:24:05.753Z,25.37
2023-04-01T11:25:02.143Z,25.34
2023-04-01T11:26:02.101Z,25.33
2023-04-01T11:27:02.110Z,25.32
2023-04-01T11:28:02.063Z,25.33
2023-04-01T11:29:02.051Z,25.32
2023-04-01T11:30:02.033Z,25.30
2023-04-01T11:31:02.054Z,25.30
2023-04-01T11:32:02.000Z,25.30
2023-04-01T11:33:02.044Z,25.30
2023-04-01T11:34:01.973Z,25.30
2023-04-01T11:35:01.966Z,25.29
2023-04-01T11:36:01.940Z,25.30
2023-04-01T11:37:01.921Z,25.32
2023-04-01T11:38:01.903Z,25.29
2023-04-01T11:39:01.892Z,25.29
2023-04-01T11:40:01.902Z,25.27
2023-04-01T11:41:01.885Z,25.29
2023-04-01T11:42:01.859Z,25.27
2023-04-01T11:43:01.828Z,25.27
2023-04-01T11:44:01.811Z,25.26
2023-04-01T11:45:01.846Z,25.24
2023-04-01T11:46:01.792Z,25.29
2023-04-01T11:47:01.758Z,25.27
2023-04-01T11:48:01.781Z,25.23
2023-04-01T11:49:01.732Z,25.24
2023-04-01T11:50:01.700Z,25.24
2023-04-01T11:51:01.698Z,25.23
2023-04-01T11:52:01.662Z,25.24
2023-04-01T11:53:01.647Z,25.24
2023-04-01T11:54:01.641Z,25.22
2023-04-01T11:55:01.606Z,25.24
2023-04-01T11:56:01.589Z,25.24
2023-04-01T11:57:01.616Z,25.24
2023-04-01T11:58:01.555Z,25.22
2023-04-01T11:59:01.602Z,25.22
2023-04-01T12:00:01.651Z,25.20
2023-04-01T12:01:01.703Z,25.22
2023-04-01T12:02:01.756Z,25.20
2023-04-01T12:03:01.940Z,25.20
2023-04-01T12:04:02.014Z,25.19
2023-04-01T12:05:02.003Z,25.19
2023-04-01T12:06:01.979Z,25.20
2023-04-01T12:07:02.000Z,25.19
2023-04-01T12:08:02.070Z,25.17
2023-04-01T12:09:02.086Z,25.19
2023-04-01T12:10:02.127Z,25.17
2023-04-01T12:11:02.174Z,25.15
2023-04-01T12:12:02.215Z,25.16
2023-04-01T12:13:02.365Z,25.17
2023-04-01T12:14:02.322Z,25.16
2023-04-01T12:15:02.385Z,25.16
2023-04-01T12:16:02.465Z,25.16
2023-04-01T12:17:02.484Z,25.17
2023-04-01T12:18:02.569Z,25.15
2023-04-01T12:19:02.573Z,25.16
2023-04-01T12:20:02.617Z,25.16
2023-04-01T12:21:02.648Z,25.15
2023-04-01T12:22:02.674Z,25.17
2023-04-01T12:23:02.718Z,25.15
2023-04-01T12:24:02.766Z,25.13
2023-04-01T12:25:02.787Z,25.13
2023-04-01T12:26:02.810Z,25.12
2023-04-01T12:27:02.838Z,25.13
2023-04-01T12:28:02.878Z,25.15
2023-04-01T12:29:02.923Z,25.12
2023-04-01T12:30:02.945Z,25.12
2023-04-01T12:31:02.999Z,25.10
2023-04-01T12:32:03.095Z,25.13
2023-04-01T12:33:03.109Z,25.12
2023-04-01T12:34:03.085Z,25.13
2023-04-01T12:35:03.146Z,25.13
2023-04-01T12:36:03.188Z,25.09
2023-04-01T12:37:03.236Z,25.10
2023-04-01T12:38:03.322Z,25.09
2023-04-01T12:39:03.319Z,25.09
2023-04-01T12:40:03.366Z,25.06
2023-04-01T12:41:03.401Z,25.07
2023-04-01T12:42:03.458Z,25.07
2023-04-01T12:43:03.492Z,25.09
2023-04-01T12:44:03.541Z,25.07
2023-04-01T12:45:04.190Z,25.07
2023-04-01T12:46:03.650Z,25.06
2023-04-01T12:47:03.656Z,25.07
2023-04-01T12:48:03.789Z,25.06
2023-04-01T12:49:03.712Z,25.06
2023-04-01T12:50:03.733Z,25.06
2023-04-01T12:51:03.758Z,25.07
2023-04-01T12:52:03.764Z,25.06
2023-04-01T12:53:03.833Z,25.06